地図

経路データ

SID SEASON NUMBER BASIN SUBBASIN NAME ISO_TIME NATURE LAT LON WMO_WIND WMO_PRES WMO_AGENCY TRACK_TYPE DIST2LAND LANDFALL IFLAG USA_AGENCY USA_ATCF_ID USA_LAT USA_LON USA_RECORD USA_STATUS USA_WIND USA_PRES USA_SSHS USA_R34_NE USA_R34_SE USA_R34_SW USA_R34_NW USA_R50_NE USA_R50_SE USA_R50_SW USA_R50_NW USA_R64_NE USA_R64_SE USA_R64_SW USA_R64_NW USA_POCI USA_ROCI USA_RMW USA_EYE TOKYO_LAT TOKYO_LON TOKYO_GRADE TOKYO_WIND TOKYO_PRES TOKYO_R50_DIR TOKYO_R50_LONG TOKYO_R50_SHORT TOKYO_R30_DIR TOKYO_R30_LONG TOKYO_R30_SHORT TOKYO_LAND CMA_LAT CMA_LON CMA_CAT CMA_WIND CMA_PRES HKO_LAT HKO_LON HKO_CAT HKO_WIND HKO_PRES NEWDELHI_LAT NEWDELHI_LON NEWDELHI_GRADE NEWDELHI_WIND NEWDELHI_PRES NEWDELHI_CI NEWDELHI_DP NEWDELHI_POCI REUNION_LAT REUNION_LON REUNION_TYPE REUNION_WIND REUNION_PRES REUNION_TNUM REUNION_CI REUNION_RMW REUNION_R34_NE REUNION_R34_SE REUNION_R34_SW REUNION_R34_NW REUNION_R50_NE REUNION_R50_SE REUNION_R50_SW REUNION_R50_NW REUNION_R64_NE REUNION_R64_SE REUNION_R64_SW REUNION_R64_NW BOM_LAT BOM_LON BOM_TYPE BOM_WIND BOM_PRES BOM_TNUM BOM_CI BOM_RMW BOM_R34_NE BOM_R34_SE BOM_R34_SW BOM_R34_NW BOM_R50_NE BOM_R50_SE BOM_R50_SW BOM_R50_NW BOM_R64_NE BOM_R64_SE BOM_R64_SW BOM_R64_NW BOM_ROCI BOM_POCI BOM_EYE BOM_POS_METHOD BOM_PRES_METHOD NADI_LAT NADI_LON NADI_CAT NADI_WIND NADI_PRES WELLINGTON_LAT WELLINGTON_LON WELLINGTON_WIND WELLINGTON_PRES DS824_LAT DS824_LON DS824_STAGE DS824_WIND DS824_PRES TD9636_LAT TD9636_LON TD9636_STAGE TD9636_WIND TD9636_PRES TD9635_LAT TD9635_LON TD9635_WIND TD9635_PRES TD9635_ROCI NEUMANN_LAT NEUMANN_LON NEUMANN_CLASS NEUMANN_WIND NEUMANN_PRES MLC_LAT MLC_LON MLC_CLASS MLC_WIND MLC_PRES USA_GUST BOM_GUST BOM_GUST_PER REUNION_GUST REUNION_GUST_PER USA_SEAHGT USA_SEARAD_NE USA_SEARAD_SE USA_SEARAD_SW USA_SEARAD_NW STORM_SPEED STORM_DIR
1929196N17132 1929 42 WP MM NOT_NAMED 1929-07-14 22:00:00 NR 16.8000 131.800 main 851 834 __________O___ -1 16.8000 131.800 7 7 270
1929196N17132 1929 42 WP MM NOT_NAMED 1929-07-15 00:00:00 NR 16.7982 131.551 main 834 798 __________P___ -1 16.7982 131.551 7 7 270
1929196N17132 1929 42 WP MM NOT_NAMED 1929-07-15 03:00:00 NR 16.7959 131.177 main 798 759 __________P___ -1 16.7959 131.177 7 7 270
1929196N17132 1929 42 WP MM NOT_NAMED 1929-07-15 06:00:00 NR 16.7954 130.802 main 759 720 __________P___ -1 16.7954 130.802 7 7 270
1929196N17132 1929 42 WP MM NOT_NAMED 1929-07-15 09:00:00 NR 16.7981 130.426 main 720 711 __________P___ -1 16.7981 130.426 7 7 271
1929196N17132 1929 42 WP MM NOT_NAMED 1929-07-15 10:00:00 NR 16.8000 130.300 main 711 682 __________O___ -1 16.8000 130.300 7 7 271
1929196N17132 1929 42 WP MM NOT_NAMED 1929-07-15 12:00:00 NR 16.8056 130.047 main 682 654 __________P___ -1 16.8056 130.047 7 7 272
1929196N17132 1929 42 WP MM NOT_NAMED 1929-07-15 15:00:00 NR 16.8203 129.668 main 654 617 __________P___ -1 16.8203 129.668 7 7 273
1929196N17132 1929 42 WP MM NOT_NAMED 1929-07-15 18:00:00 NR 16.8453 129.292 main 617 587 __________P___ -1 16.8453 129.292 7 7 275
1929196N17132 1929 42 WP MM NOT_NAMED 1929-07-15 21:00:00 NR 16.8837 128.922 main 587 579 __________P___ -1 16.8837 128.922 7 7 277
1929196N17132 1929 42 WP MM NOT_NAMED 1929-07-15 22:00:00 NR 16.9000 128.800 main 579 561 __________O___ -1 16.9000 128.800 7 7 280
1929196N17132 1929 42 WP MM NOT_NAMED 1929-07-16 00:00:00 NR 16.9410 128.566 main 561 535 __________P___ -1 16.9410 128.566 7 7 282
1929196N17132 1929 42 WP MM NOT_NAMED 1929-07-16 03:00:00 NR 17.0152 128.222 main 535 518 __________P___ -1 17.0152 128.222 7 7 283
1929196N17132 1929 42 WP MM NOT_NAMED 1929-07-16 06:00:00 NR 17.0966 127.877 main 518 495 __________P___ -1 17.0966 127.877 7 7 284
1929196N17132 1929 42 WP MM NOT_NAMED 1929-07-16 09:00:00 NR 17.1757 127.522 main 495 488 __________P___ -1 17.1757 127.522 7 7 283
1929196N17132 1929 42 WP MM NOT_NAMED 1929-07-16 10:00:00 NR 17.2000 127.400 main 488 467 __________O___ -1 17.2000 127.400 7 7 276
1929196N17132 1929 42 WP MM NOT_NAMED 1929-07-16 12:00:00 NR 17.2154 127.139 main 467 440 __________P___ -1 17.2154 127.139 7 8 273
1929196N17132 1929 42 WP MM NOT_NAMED 1929-07-16 15:00:00 NR 17.2318 126.735 main 440 405 __________P___ -1 17.2318 126.735 7 8 274
1929196N17132 1929 42 WP MM NOT_NAMED 1929-07-16 18:00:00 NR 17.2677 126.328 main 405 363 __________P___ -1 17.2677 126.328 7 8 279
1929196N17132 1929 42 WP MM NOT_NAMED 1929-07-16 21:00:00 NR 17.3544 125.929 main 363 353 __________P___ -1 17.3544 125.929 7 8 285
1929196N17132 1929 42 WP MM NOT_NAMED 1929-07-16 22:00:00 NR 17.4000 125.800 main 353 323 __________O___ -1 17.4000 125.800 3 8 294
1929196N17132 1929 42 WP MM NOT_NAMED 1929-07-17 00:00:00 NR 17.5188 125.535 main 323 290 __________P___ -1 17.5188 125.535 3 9 300
1929196N17132 1929 42 WP MM NOT_NAMED 1929-07-17 03:00:00 NR 17.7536 125.148 main 290 266 __________P___ -1 17.7536 125.148 3 9 307
1929196N17132 1929 42 WP MM NOT_NAMED 1929-07-17 06:00:00 NR 18.0451 124.793 main 266 232 __________P___ -1 18.0451 124.793 3 9 315
1929196N17132 1929 42 WP MM NOT_NAMED 1929-07-17 09:00:00 NR 18.3805 124.488 main 232 221 __________P___ -1 18.3805 124.488 3 9 321
1929196N17132 1929 42 WP MM NOT_NAMED 1929-07-17 10:00:00 NR 18.5000 124.400 main 221 203 __________O___ -1 18.5000 124.400 4 9 327
1929196N17132 1929 42 WP MM NOT_NAMED 1929-07-17 12:00:00 NR 18.7431 124.236 main 203 195 __________P___ -1 18.7431 124.236 4 9 332
1929196N17132 1929 42 WP MM NOT_NAMED 1929-07-17 15:00:00 NR 19.1397 124.040 main 195 200 __________P___ -1 19.1397 124.040 4 9 339
1929196N17132 1929 42 WP MM NOT_NAMED 1929-07-17 18:00:00 NR 19.5551 123.901 main 215 215 __________P___ -1 19.5551 123.901 4 9 346
1929196N17132 1929 42 WP MM NOT_NAMED 1929-07-17 21:00:00 NR 19.9672 123.817 main 238 238 __________P___ -1 19.9672 123.817 4 8 350
1929196N17132 1929 42 WP MM NOT_NAMED 1929-07-17 22:00:00 NR 20.1000 123.800 main 246 246 __________O___ -1 20.1000 123.800 4 8 353
1929196N17132 1929 42 WP MM NOT_NAMED 1929-07-18 00:00:00 NR 20.3421 123.787 main 264 273 __________P___ -1 20.3421 123.787 4 7 0
1929196N17132 1929 42 WP MM NOT_NAMED 1929-07-18 03:00:00 NR 20.6926 123.811 main 301 301 __________P___ -1 20.6926 123.811 4 7 6
1929196N17132 1929 42 WP MM NOT_NAMED 1929-07-18 06:00:00 NR 21.0362 123.859 main 326 314 __________P___ -1 21.0362 123.859 4 7 7
1929196N17132 1929 42 WP MM NOT_NAMED 1929-07-18 09:00:00 NR 21.3824 123.896 main 314 313 __________P___ -1 21.3824 123.896 4 7 4
1929196N17132 1929 42 WP MM NOT_NAMED 1929-07-18 10:00:00 NR 21.5000 123.900 main 313 300 __________O___ -1 21.5000 123.900 4 7 0
1929196N17132 1929 42 WP MM NOT_NAMED 1929-07-18 12:00:00 NR 21.7414 123.912 main 300 279 __________P___ -1 21.7414 123.912 4 7 0
1929196N17132 1929 42 WP MM NOT_NAMED 1929-07-18 15:00:00 NR 22.1097 123.905 main 279 254 __________P___ -1 22.1097 123.905 4 8 355
1929196N17132 1929 42 WP MM NOT_NAMED 1929-07-18 18:00:00 NR 22.4858 123.839 main 254 236 __________P___ -1 22.4858 123.839 4 8 345
1929196N17132 1929 42 WP MM NOT_NAMED 1929-07-18 21:00:00 NR 22.8701 123.680 main 236 225 __________P___ -1 22.8701 123.680 4 8 337
1929196N17132 1929 42 WP MM NOT_NAMED 1929-07-18 22:00:00 NR 23.0000 123.600 main 225 198 __________O___ -1 23.0000 123.600 4 10 327
1929196N17132 1929 42 WP MM NOT_NAMED 1929-07-19 00:00:00 NR 23.2770 123.392 main 198 142 __________P___ -1 23.2770 123.392 4 11 321
1929196N17132 1929 42 WP MM NOT_NAMED 1929-07-19 03:00:00 NR 23.6990 122.984 main 142 75 __________P___ -1 23.6990 122.984 4 12 316
1929196N17132 1929 42 WP MM NOT_NAMED 1929-07-19 06:00:00 NR 24.1091 122.499 main 75 10 __________P___ -1 24.1091 122.499 4 12 311
1929196N17132 1929 42 WP MM NOT_NAMED 1929-07-19 09:00:00 NR 24.4856 121.975 main 10 0 __________P___ -1 24.4856 121.975 4 12 308
1929196N17132 1929 42 WP MM NOT_NAMED 1929-07-19 10:00:00 NR 24.6000 121.800 main 0 0 __________O___ -1 24.6000 121.800 4 10 309
1929196N17132 1929 42 WP MM NOT_NAMED 1929-07-19 12:00:00 NR 24.7901 121.557 main 0 0 __________P___ -1 24.7901 121.557 4 9 308
1929196N17132 1929 42 WP MM NOT_NAMED 1929-07-19 15:00:00 NR 25.0377 121.182 main 0 0 __________P___ -1 25.0377 121.182 4 9 302
1929196N17132 1929 42 WP MM NOT_NAMED 1929-07-19 18:00:00 NR 25.2681 120.716 main 45 41 __________P___ -1 25.2681 120.716 4 11 295
1929196N17132 1929 42 WP MM NOT_NAMED 1929-07-19 21:00:00 NR 25.5112 120.071 main 41 22 __________P___ -1 25.5112 120.071 4 13 292
1929196N17132 1929 42 WP MM NOT_NAMED 1929-07-19 22:00:00 NR 25.6000 119.800 main 22 0 __________O___ -1 25.6000 119.800 4 18 291
1929196N17132 1929 42 WP MM NOT_NAMED 1929-07-20 00:00:00 NR 25.8327 119.146 main 0 0 __________P___ -1 25.8327 119.146 4 21 290
1929196N17132 1929 42 WP MM NOT_NAMED 1929-07-20 03:00:00 NR 26.1999 117.968 main 0 0 __________P___ -1 26.1999 117.968 4 24 287
1929196N17132 1929 42 WP MM NOT_NAMED 1929-07-20 06:00:00 NR 26.5469 116.621 main 0 0 __________P___ -1 26.5469 116.621 4 26 284
1929196N17132 1929 42 WP MM NOT_NAMED 1929-07-20 09:00:00 NR 26.8282 115.185 main 0 0 __________P___ -1 26.8282 115.185 4 26 282
1929196N17132 1929 42 WP MM NOT_NAMED 1929-07-20 10:00:00 NR 26.9000 114.700 main 0 0 __________O___ -1 26.9000 114.700 2 26 278
1929196N17132 1929 42 WP MM NOT_NAMED 1929-07-20 12:00:00 NR 27.0049 113.735 main 0 0 __________P___ -1 27.0049 113.735 2 26 275
1929196N17132 1929 42 WP MM NOT_NAMED 1929-07-20 15:00:00 NR 27.0786 112.302 main 0 0 __________P___ -1 27.0786 112.302 2 25 272
1929196N17132 1929 42 WP MM NOT_NAMED 1929-07-20 18:00:00 NR 27.0759 110.881 main 0 0 __________P___ -1 27.0759 110.881 2 25 269
1929196N17132 1929 42 WP MM NOT_NAMED 1929-07-20 21:00:00 NR 27.0238 109.469 main 0 0 __________P___ -1 27.0238 109.469 2 25 267
1929196N17132 1929 42 WP MM NOT_NAMED 1929-07-20 22:00:00 NR 27.0000 109.000 main 0 __________O___ -1 27.0000 109.000 7 25 267

デジタル台風データ・検索

IBTrACS Databaseについて

本データベースは、米国NOAAが公開する1842年以降の世界の熱帯低気圧のベストトラックデータアーカイブInternational Best Track Archive for Climate Stewardship (IBTrACS)を、ウェブで閲覧しやすい形式に変換したものです。

最終更新日:2021-12-03